sensor_id;sensor_type;location;lat;lon;timestamp;P1;P2;P0
77699;PMS5003;66867;42.658;23.320;2023-02-28T00:00:00;41;37;
77699;PMS5003;66867;42.658;23.320;2023-02-28T00:01:00;40;37;
77699;PMS5003;66867;42.658;23.320;2023-02-28T00:02:00;36;34;
77699;PMS5003;66867;42.658;23.320;2023-02-28T00:03:00;34;31;
77699;PMS5003;66867;42.658;23.320;2023-02-28T00:04:00;40;34;
77699;PMS5003;66867;42.658;23.320;2023-02-28T00:05:00;41;37;
77699;PMS5003;66867;42.658;23.320;2023-02-28T00:06:01;37;34;
77699;PMS5003;66867;42.658;23.320;2023-02-28T00:07:00;37;34;
77699;PMS5003;66867;42.658;23.320;2023-02-28T00:08:00;36;35;
77699;PMS5003;66867;42.658;23.320;2023-02-28T00:09:00;36;34;
77699;PMS5003;66867;42.658;23.320;2023-02-28T00:10:00;35;34;
77699;PMS5003;66867;42.658;23.320;2023-02-28T00:11:01;37;35;
77699;PMS5003;66867;42.658;23.320;2023-02-28T00:12:00;29;28;
77699;PMS5003;66867;42.658;23.320;2023-02-28T00:13:03;37;34;
77699;PMS5003;66867;42.658;23.320;2023-02-28T00:14:00;35;34;
77699;PMS5003;66867;42.658;23.320;2023-02-28T00:15:01;35;33;
77699;PMS5003;66867;42.658;23.320;2023-02-28T00:16:03;38;35;
77699;PMS5003;66867;42.658;23.320;2023-02-28T00:17:00;34;31;
77699;PMS5003;66867;42.658;23.320;2023-02-28T00:18:01;34;34;
77699;PMS5003;66867;42.658;23.320;2023-02-28T00:19:00;29;28;
77699;PMS5003;66867;42.658;23.320;2023-02-28T00:20:00;27;26;
77699;PMS5003;66867;42.658;23.320;2023-02-28T00:21:00;38;34;
77699;PMS5003;66867;42.658;23.320;2023-02-28T00:22:00;28;27;
77699;PMS5003;66867;42.658;23.320;2023-02-28T00:23:00;30;28;
77699;PMS5003;66867;42.658;23.320;2023-02-28T00:24:00;27;27;
77699;PMS5003;66867;42.658;23.320;2023-02-28T00:25:00;26;24;
77699;PMS5003;66867;42.658;23.320;2023-02-28T00:26:00;29;28;
77699;PMS5003;66867;42.658;23.320;2023-02-28T00:27:00;30;28;
77699;PMS5003;66867;42.658;23.320;2023-02-28T00:28:00;29;28;
77699;PMS5003;66867;42.658;23.320;2023-02-28T00:29:00;28;28;
77699;PMS5003;66867;42.658;23.320;2023-02-28T00:30:00;28;28;
77699;PMS5003;66867;42.658;23.320;2023-02-28T00:31:00;26;24;
77699;PMS5003;66867;42.658;23.320;2023-02-28T00:32:00;23;23;
77699;PMS5003;66867;42.658;23.320;2023-02-28T00:33:00;28;28;
77699;PMS5003;66867;42.658;23.320;2023-02-28T00:34:00;29;28;
77699;PMS5003;66867;42.658;23.320;2023-02-28T00:35:00;24;23;
77699;PMS5003;66867;42.658;23.320;2023-02-28T00:36:01;26;26;
77699;PMS5003;66867;42.658;23.320;2023-02-28T00:37:00;27;24;
77699;PMS5003;66867;42.658;23.320;2023-02-28T00:38:00;26;26;
77699;PMS5003;66867;42.658;23.320;2023-02-28T00:39:00;34;31;
77699;PMS5003;66867;42.658;23.320;2023-02-28T00:40:00;23;22;
77699;PMS5003;66867;42.658;23.320;2023-02-28T00:41:01;30;27;
77699;PMS5003;66867;42.658;23.320;2023-02-28T00:42:00;26;24;
77699;PMS5003;66867;42.658;23.320;2023-02-28T00:43:00;24;24;
77699;PMS5003;66867;42.658;23.320;2023-02-28T00:44:00;27;26;
77699;PMS5003;66867;42.658;23.320;2023-02-28T00:45:00;28;26;
77699;PMS5003;66867;42.658;23.320;2023-02-28T00:46:01;24;23;
77699;PMS5003;66867;42.658;23.320;2023-02-28T00:47:00;26;23;
77699;PMS5003;66867;42.658;23.320;2023-02-28T00:48:00;30;29;
77699;PMS5003;66867;42.658;23.320;2023-02-28T00:49:00;30;30;
77699;PMS5003;66867;42.658;23.320;2023-02-28T00:50:00;42;36;
77699;PMS5003;66867;42.658;23.320;2023-02-28T00:51:01;31;28;
77699;PMS5003;66867;42.658;23.320;2023-02-28T00:52:00;33;30;
77699;PMS5003;66867;42.658;23.320;2023-02-28T00:53:00;30;29;
77699;PMS5003;66867;42.658;23.320;2023-02-28T00:54:00;32;30;
77699;PMS5003;66867;42.658;23.320;2023-02-28T00:55:00;33;31;
77699;PMS5003;66867;42.658;23.320;2023-02-28T00:56:00;29;27;
77699;PMS5003;66867;42.658;23.320;2023-02-28T00:57:00;30;29;
77699;PMS5003;66867;42.658;23.320;2023-02-28T00:58:00;38;33;
77699;PMS5003;66867;42.658;23.320;2023-02-28T00:59:00;34;33;
77699;PMS5003;66867;42.658;23.320;2023-02-28T01:00:00;29;27;
77699;PMS5003;66867;42.658;23.320;2023-02-28T01:01:00;29;28;
77699;PMS5003;66867;42.658;23.320;2023-02-28T01:02:00;35;34;
77699;PMS5003;66867;42.658;23.320;2023-02-28T01:03:00;29;27;
77699;PMS5003;66867;42.658;23.320;2023-02-28T01:04:00;29;28;
77699;PMS5003;66867;42.658;23.320;2023-02-28T01:05:00;38;35;
77699;PMS5003;66867;42.658;23.320;2023-02-28T01:06:00;28;28;
77699;PMS5003;66867;42.658;23.320;2023-02-28T01:07:00;37;36;
77699;PMS5003;66867;42.658;23.320;2023-02-28T01:08:00;33;31;
77699;PMS5003;66867;42.658;23.320;2023-02-28T01:09:00;34;34;
77699;PMS5003;66867;42.658;23.320;2023-02-28T01:10:00;31;30;
77699;PMS5003;66867;42.658;23.320;2023-02-28T01:11:07;30;30;
77699;PMS5003;66867;42.658;23.320;2023-02-28T01:12:00;34;33;
77699;PMS5003;66867;42.658;23.320;2023-02-28T01:13:00;37;35;
77699;PMS5003;66867;42.658;23.320;2023-02-28T01:14:00;31;31;
77699;PMS5003;66867;42.658;23.320;2023-02-28T01:15:00;36;34;
77699;PMS5003;66867;42.658;23.320;2023-02-28T01:16:00;33;30;
77699;PMS5003;66867;42.658;23.320;2023-02-28T01:17:00;37;35;
77699;PMS5003;66867;42.658;23.320;2023-02-28T01:18:00;33;30;
77699;PMS5003;66867;42.658;23.320;2023-02-28T01:19:00;31;31;
77699;PMS5003;66867;42.658;23.320;2023-02-28T01:20:00;36;31;
77699;PMS5003;66867;42.658;23.320;2023-02-28T01:21:04;33;30;
77699;PMS5003;66867;42.658;23.320;2023-02-28T01:22:03;38;36;
77699;PMS5003;66867;42.658;23.320;2023-02-28T01:23:00;41;35;
77699;PMS5003;66867;42.658;23.320;2023-02-28T01:24:01;36;34;
77699;PMS5003;66867;42.658;23.320;2023-02-28T01:25:00;40;35;
77699;PMS5003;66867;42.658;23.320;2023-02-28T01:26:05;38;36;
77699;PMS5003;66867;42.658;23.320;2023-02-28T01:27:00;36;34;
77699;PMS5003;66867;42.658;23.320;2023-02-28T01:28:00;35;34;
77699;PMS5003;66867;42.658;23.320;2023-02-28T01:29:00;40;37;
77699;PMS5003;66867;42.658;23.320;2023-02-28T01:30:00;35;30;
77699;PMS5003;66867;42.658;23.320;2023-02-28T01:31:00;30;30;
77699;PMS5003;66867;42.658;23.320;2023-02-28T01:32:00;41;34;
77699;PMS5003;66867;42.658;23.320;2023-02-28T01:33:00;37;35;
77699;PMS5003;66867;42.658;23.320;2023-02-28T01:34:01;37;35;
77699;PMS5003;66867;42.658;23.320;2023-02-28T01:35:00;42;37;
77699;PMS5003;66867;42.658;23.320;2023-02-28T01:36:03;41;37;
77699;PMS5003;66867;42.658;23.320;2023-02-28T01:37:00;35;34;
77699;PMS5003;66867;42.658;23.320;2023-02-28T01:38:00;35;32;
77699;PMS5003;66867;42.658;23.320;2023-02-28T01:39:00;38;36;
77699;PMS5003;66867;42.658;23.320;2023-02-28T01:40:00;41;37;
77699;PMS5003;66867;42.658;23.320;2023-02-28T01:41:01;38;34;
77699;PMS5003;66867;42.658;23.320;2023-02-28T01:42:00;37;35;
77699;PMS5003;66867;42.658;23.320;2023-02-28T01:43:00;41;36;
77699;PMS5003;66867;42.658;23.320;2023-02-28T01:45:06;41;37;
77699;PMS5003;66867;42.658;23.320;2023-02-28T01:46:00;40;36;
77699;PMS5003;66867;42.658;23.320;2023-02-28T01:47:00;38;36;
77699;PMS5003;66867;42.658;23.320;2023-02-28T01:48:04;41;37;
77699;PMS5003;66867;42.658;23.320;2023-02-28T01:49:04;38;34;
77699;PMS5003;66867;42.658;23.320;2023-02-28T01:50:02;45;40;
77699;PMS5003;66867;42.658;23.320;2023-02-28T01:51:04;47;38;
77699;PMS5003;66867;42.658;23.320;2023-02-28T01:52:00;35;34;
77699;PMS5003;66867;42.658;23.320;2023-02-28T01:53:04;43;37;
77699;PMS5003;66867;42.658;23.320;2023-02-28T01:54:03;47;39;
77699;PMS5003;66867;42.658;23.320;2023-02-28T01:55:02;37;35;
77699;PMS5003;66867;42.658;23.320;2023-02-28T01:56:02;44;40;
77699;PMS5003;66867;42.658;23.320;2023-02-28T01:57:04;38;36;
77699;PMS5003;66867;42.658;23.320;2023-02-28T01:58:02;41;36;
77699;PMS5003;66867;42.658;23.320;2023-02-28T01:59:01;41;36;
77699;PMS5003;66867;42.658;23.320;2023-02-28T02:00:02;47;40;
77699;PMS5003;66867;42.658;23.320;2023-02-28T02:01:00;45;38;
77699;PMS5003;66867;42.658;23.320;2023-02-28T02:02:01;42;37;
77699;PMS5003;66867;42.658;23.320;2023-02-28T02:03:05;42;37;
77699;PMS5003;66867;42.658;23.320;2023-02-28T02:04:02;45;38;
77699;PMS5003;66867;42.658;23.320;2023-02-28T02:05:04;41;37;
77699;PMS5003;66867;42.658;23.320;2023-02-28T02:06:01;48;41;
77699;PMS5003;66867;42.658;23.320;2023-02-28T02:07:01;38;36;
77699;PMS5003;66867;42.658;23.320;2023-02-28T02:08:05;52;41;
77699;PMS5003;66867;42.658;23.320;2023-02-28T02:09:00;49;41;
77699;PMS5003;66867;42.658;23.320;2023-02-28T02:10:04;41;37;
77699;PMS5003;66867;42.658;23.320;2023-02-28T02:11:01;41;37;
77699;PMS5003;66867;42.658;23.320;2023-02-28T02:12:10;40;37;
77699;PMS5003;66867;42.658;23.320;2023-02-28T02:14:13;49;40;
77699;PMS5003;66867;42.658;23.320;2023-02-28T02:15:10;42;37;
77699;PMS5003;66867;42.658;23.320;2023-02-28T02:16:14;37;35;
77699;PMS5003;66867;42.658;23.320;2023-02-28T02:17:08;42;37;
77699;PMS5003;66867;42.658;23.320;2023-02-28T02:18:10;48;41;
77699;PMS5003;66867;42.658;23.320;2023-02-28T02:20:30;45;40;
77699;PMS5003;66867;42.658;23.320;2023-02-28T02:25:27;43;37;
77699;PMS5003;66867;42.658;23.320;2023-02-28T02:32:08;47;41;
77699;PMS5003;66867;42.658;23.320;2023-02-28T02:33:28;42;38;
77699;PMS5003;66867;42.658;23.320;2023-02-28T02:34:17;43;38;
77699;PMS5003;66867;42.658;23.320;2023-02-28T02:35:05;45;40;
77699;PMS5003;66867;42.658;23.320;2023-02-28T02:36:06;51;42;
77699;PMS5003;66867;42.658;23.320;2023-02-28T02:37:08;51;43;
77699;PMS5003;66867;42.658;23.320;2023-02-28T02:38:08;53;44;
77699;PMS5003;66867;42.658;23.320;2023-02-28T02:39:13;53;44;
77699;PMS5003;66867;42.658;23.320;2023-02-28T02:40:10;58;46;
77699;PMS5003;66867;42.658;23.320;2023-02-28T02:41:06;54;44;
77699;PMS5003;66867;42.658;23.320;2023-02-28T02:42:04;57;48;
77699;PMS5003;66867;42.658;23.320;2023-02-28T02:43:06;56;46;
77699;PMS5003;66867;42.658;23.320;2023-02-28T02:44:10;53;45;
77699;PMS5003;66867;42.658;23.320;2023-02-28T02:45:04;55;47;
77699;PMS5003;66867;42.658;23.320;2023-02-28T02:46:07;53;44;
77699;PMS5003;66867;42.658;23.320;2023-02-28T02:47:08;55;44;
77699;PMS5003;66867;42.658;23.320;2023-02-28T02:48:01;55;46;
77699;PMS5003;66867;42.658;23.320;2023-02-28T02:49:04;66;51;
77699;PMS5003;66867;42.658;23.320;2023-02-28T02:50:03;57;48;
77699;PMS5003;66867;42.658;23.320;2023-02-28T02:51:04;62;51;
77699;PMS5003;66867;42.658;23.320;2023-02-28T02:52:05;55;45;
77699;PMS5003;66867;42.658;23.320;2023-02-28T02:53:02;59;49;
77699;PMS5003;66867;42.658;23.320;2023-02-28T02:54:04;54;44;
77699;PMS5003;66867;42.658;23.320;2023-02-28T02:55:01;53;45;
77699;PMS5003;66867;42.658;23.320;2023-02-28T02:56:02;56;44;
77699;PMS5003;66867;42.658;23.320;2023-02-28T02:57:04;60;50;
77699;PMS5003;66867;42.658;23.320;2023-02-28T02:58:04;60;49;
77699;PMS5003;66867;42.658;23.320;2023-02-28T02:59:03;60;51;
77699;PMS5003;66867;42.658;23.320;2023-02-28T03:00:03;62;50;
77699;PMS5003;66867;42.658;23.320;2023-02-28T03:01:02;60;49;
77699;PMS5003;66867;42.658;23.320;2023-02-28T03:02:03;57;48;
77699;PMS5003;66867;42.658;23.320;2023-02-28T03:03:01;59;48;
77699;PMS5003;66867;42.658;23.320;2023-02-28T03:04:04;60;50;
77699;PMS5003;66867;42.658;23.320;2023-02-28T03:05:04;60;49;
77699;PMS5003;66867;42.658;23.320;2023-02-28T03:06:01;60;49;
77699;PMS5003;66867;42.658;23.320;2023-02-28T03:07:00;54;45;
77699;PMS5003;66867;42.658;23.320;2023-02-28T03:08:03;56;45;
77699;PMS5003;66867;42.658;23.320;2023-02-28T03:09:00;56;47;
77699;PMS5003;66867;42.658;23.320;2023-02-28T03:10:00;59;48;
77699;PMS5003;66867;42.658;23.320;2023-02-28T03:11:04;53;45;
77699;PMS5003;66867;42.658;23.320;2023-02-28T03:12:00;54;46;
77699;PMS5003;66867;42.658;23.320;2023-02-28T03:13:06;56;45;
77699;PMS5003;66867;42.658;23.320;2023-02-28T03:14:14;53;45;
77699;PMS5003;66867;42.658;23.320;2023-02-28T03:15:19;58;46;
77699;PMS5003;66867;42.658;23.320;2023-02-28T03:18:04;56;47;
77699;PMS5003;66867;42.658;23.320;2023-02-28T03:20:24;52;44;
77699;PMS5003;66867;42.658;23.320;2023-02-28T03:22:14;48;41;
77699;PMS5003;66867;42.658;23.320;2023-02-28T03:23:08;55;44;
77699;PMS5003;66867;42.658;23.320;2023-02-28T03:24:04;51;43;
77699;PMS5003;66867;42.658;23.320;2023-02-28T03:26:04;51;44;
77699;PMS5003;66867;42.658;23.320;2023-02-28T03:27:07;52;42;
77699;PMS5003;66867;42.658;23.320;2023-02-28T03:28:07;51;44;
77699;PMS5003;66867;42.658;23.320;2023-02-28T03:29:07;56;44;
77699;PMS5003;66867;42.658;23.320;2023-02-28T03:30:04;50;41;
77699;PMS5003;66867;42.658;23.320;2023-02-28T03:31:07;51;41;
77699;PMS5003;66867;42.658;23.320;2023-02-28T03:32:08;56;45;
77699;PMS5003;66867;42.658;23.320;2023-02-28T03:33:07;53;44;
77699;PMS5003;66867;42.658;23.320;2023-02-28T03:34:06;53;45;
77699;PMS5003;66867;42.658;23.320;2023-02-28T03:35:07;57;47;
77699;PMS5003;66867;42.658;23.320;2023-02-28T03:36:06;53;43;
77699;PMS5003;66867;42.658;23.320;2023-02-28T03:37:06;57;47;
77699;PMS5003;66867;42.658;23.320;2023-02-28T03:38:05;58;48;
77699;PMS5003;66867;42.658;23.320;2023-02-28T03:39:06;53;43;
77699;PMS5003;66867;42.658;23.320;2023-02-28T03:40:03;51;43;
77699;PMS5003;66867;42.658;23.320;2023-02-28T03:41:06;58;46;
77699;PMS5003;66867;42.658;23.320;2023-02-28T03:42:04;56;47;
77699;PMS5003;66867;42.658;23.320;2023-02-28T03:43:04;53;43;
77699;PMS5003;66867;42.658;23.320;2023-02-28T03:44:08;53;43;
77699;PMS5003;66867;42.658;23.320;2023-02-28T03:45:04;54;42;
77699;PMS5003;66867;42.658;23.320;2023-02-28T03:46:04;43;38;
77699;PMS5003;66867;42.658;23.320;2023-02-28T03:47:04;48;40;
77699;PMS5003;66867;42.658;23.320;2023-02-28T03:48:01;51;42;
77699;PMS5003;66867;42.658;23.320;2023-02-28T03:49:04;54;44;
77699;PMS5003;66867;42.658;23.320;2023-02-28T03:50:20;54;43;
77699;PMS5003;66867;42.658;23.320;2023-02-28T03:51:02;56;46;
77699;PMS5003;66867;42.658;23.320;2023-02-28T03:52:02;49;41;
77699;PMS5003;66867;42.658;23.320;2023-02-28T03:53:04;47;40;
77699;PMS5003;66867;42.658;23.320;2023-02-28T03:54:06;53;43;
77699;PMS5003;66867;42.658;23.320;2023-02-28T03:55:03;51;42;
77699;PMS5003;66867;42.658;23.320;2023-02-28T03:56:07;54;44;
77699;PMS5003;66867;42.658;23.320;2023-02-28T03:57:10;54;46;
77699;PMS5003;66867;42.658;23.320;2023-02-28T03:58:03;52;44;
77699;PMS5003;66867;42.658;23.320;2023-02-28T03:59:06;55;44;
77699;PMS5003;66867;42.658;23.320;2023-02-28T04:00:05;48;41;
77699;PMS5003;66867;42.658;23.320;2023-02-28T04:01:07;57;45;
77699;PMS5003;66867;42.658;23.320;2023-02-28T04:02:00;52;44;
77699;PMS5003;66867;42.658;23.320;2023-02-28T04:03:00;51;43;
77699;PMS5003;66867;42.658;23.320;2023-02-28T04:04:01;52;43;
77699;PMS5003;66867;42.658;23.320;2023-02-28T04:05:00;59;45;
77699;PMS5003;66867;42.658;23.320;2023-02-28T04:06:00;45;39;
77699;PMS5003;66867;42.658;23.320;2023-02-28T04:07:03;44;40;
77699;PMS5003;66867;42.658;23.320;2023-02-28T04:08:05;46;41;
77699;PMS5003;66867;42.658;23.320;2023-02-28T04:09:01;46;41;
77699;PMS5003;66867;42.658;23.320;2023-02-28T04:10:00;51;42;
77699;PMS5003;66867;42.658;23.320;2023-02-28T04:11:04;55;46;
77699;PMS5003;66867;42.658;23.320;2023-02-28T04:12:00;49;40;
77699;PMS5003;66867;42.658;23.320;2023-02-28T04:13:00;51;43;
77699;PMS5003;66867;42.658;23.320;2023-02-28T04:14:02;46;41;
77699;PMS5003;66867;42.658;23.320;2023-02-28T04:15:00;52;44;
77699;PMS5003;66867;42.658;23.320;2023-02-28T04:16:00;57;47;
77699;PMS5003;66867;42.658;23.320;2023-02-28T04:17:00;52;43;
77699;PMS5003;66867;42.658;23.320;2023-02-28T04:18:00;49;41;
77699;PMS5003;66867;42.658;23.320;2023-02-28T04:19:01;50;42;
77699;PMS5003;66867;42.658;23.320;2023-02-28T04:20:00;53;43;
77699;PMS5003;66867;42.658;23.320;2023-02-28T04:21:00;54;44;
77699;PMS5003;66867;42.658;23.320;2023-02-28T04:22:00;49;43;
77699;PMS5003;66867;42.658;23.320;2023-02-28T04:23:00;56;43;
77699;PMS5003;66867;42.658;23.320;2023-02-28T04:24:00;56;47;
77699;PMS5003;66867;42.658;23.320;2023-02-28T04:25:00;54;45;
77699;PMS5003;66867;42.658;23.320;2023-02-28T04:26:00;54;43;
77699;PMS5003;66867;42.658;23.320;2023-02-28T04:27:00;51;43;
77699;PMS5003;66867;42.658;23.320;2023-02-28T04:28:00;50;42;
77699;PMS5003;66867;42.658;23.320;2023-02-28T04:29:01;50;41;
77699;PMS5003;66867;42.658;23.320;2023-02-28T04:30:00;51;42;
77699;PMS5003;66867;42.658;23.320;2023-02-28T04:31:04;56;45;
77699;PMS5003;66867;42.658;23.320;2023-02-28T04:32:01;54;44;
77699;PMS5003;66867;42.658;23.320;2023-02-28T04:33:00;48;41;
77699;PMS5003;66867;42.658;23.320;2023-02-28T04:34:01;51;41;
77699;PMS5003;66867;42.658;23.320;2023-02-28T04:35:00;46;41;
77699;PMS5003;66867;42.658;23.320;2023-02-28T04:36:02;51;40;
77699;PMS5003;66867;42.658;23.320;2023-02-28T04:37:00;49;42;
77699;PMS5003;66867;42.658;23.320;2023-02-28T04:38:00;49;41;
77699;PMS5003;66867;42.658;23.320;2023-02-28T04:39:00;50;41;
77699;PMS5003;66867;42.658;23.320;2023-02-28T04:40:01;52;41;
77699;PMS5003;66867;42.658;23.320;2023-02-28T04:41:00;51;44;
77699;PMS5003;66867;42.658;23.320;2023-02-28T04:42:00;52;42;
77699;PMS5003;66867;42.658;23.320;2023-02-28T04:43:00;44;37;
77699;PMS5003;66867;42.658;23.320;2023-02-28T04:44:00;43;38;
77699;PMS5003;66867;42.658;23.320;2023-02-28T04:45:01;44;40;
77699;PMS5003;66867;42.658;23.320;2023-02-28T04:46:02;42;36;
77699;PMS5003;66867;42.658;23.320;2023-02-28T04:47:00;55;45;
77699;PMS5003;66867;42.658;23.320;2023-02-28T04:48:00;53;42;
77699;PMS5003;66867;42.658;23.320;2023-02-28T04:49:00;51;40;
77699;PMS5003;66867;42.658;23.320;2023-02-28T04:50:00;51;41;
77699;PMS5003;66867;42.658;23.320;2023-02-28T04:51:04;45;40;
77699;PMS5003;66867;42.658;23.320;2023-02-28T04:52:00;49;41;
77699;PMS5003;66867;42.658;23.320;2023-02-28T04:53:00;46;40;
77699;PMS5003;66867;42.658;23.320;2023-02-28T04:54:00;42;38;
77699;PMS5003;66867;42.658;23.320;2023-02-28T04:55:00;47;38;
77699;PMS5003;66867;42.658;23.320;2023-02-28T04:56:00;49;40;
77699;PMS5003;66867;42.658;23.320;2023-02-28T04:57:00;41;37;
77699;PMS5003;66867;42.658;23.320;2023-02-28T04:58:00;47;38;
77699;PMS5003;66867;42.658;23.320;2023-02-28T05:00:00;46;40;
77699;PMS5003;66867;42.658;23.320;2023-02-28T05:01:04;41;38;
77699;PMS5003;66867;42.658;23.320;2023-02-28T05:02:00;44;39;
77699;PMS5003;66867;42.658;23.320;2023-02-28T05:03:00;43;40;
77699;PMS5003;66867;42.658;23.320;2023-02-28T05:04:02;43;39;
77699;PMS5003;66867;42.658;23.320;2023-02-28T05:05:00;42;37;
77699;PMS5003;66867;42.658;23.320;2023-02-28T05:06:00;42;37;
77699;PMS5003;66867;42.658;23.320;2023-02-28T05:07:00;46;40;
77699;PMS5003;66867;42.658;23.320;2023-02-28T05:08:00;49;43;
77699;PMS5003;66867;42.658;23.320;2023-02-28T05:09:00;47;38;
77699;PMS5003;66867;42.658;23.320;2023-02-28T05:10:00;41;36;
77699;PMS5003;66867;42.658;23.320;2023-02-28T05:11:01;50;42;
77699;PMS5003;66867;42.658;23.320;2023-02-28T05:12:00;47;40;
77699;PMS5003;66867;42.658;23.320;2023-02-28T05:13:00;48;40;
77699;PMS5003;66867;42.658;23.320;2023-02-28T05:16:00;46;40;
77699;PMS5003;66867;42.658;23.320;2023-02-28T05:17:00;37;34;
77699;PMS5003;66867;42.658;23.320;2023-02-28T05:18:00;45;37;
77699;PMS5003;66867;42.658;23.320;2023-02-28T05:19:00;38;35;
77699;PMS5003;66867;42.658;23.320;2023-02-28T05:20:00;44;38;
77699;PMS5003;66867;42.658;23.320;2023-02-28T05:21:00;43;38;
77699;PMS5003;66867;42.658;23.320;2023-02-28T05:22:00;39;36;
77699;PMS5003;66867;42.658;23.320;2023-02-28T05:23:01;42;38;
77699;PMS5003;66867;42.658;23.320;2023-02-28T05:24:02;45;38;
77699;PMS5003;66867;42.658;23.320;2023-02-28T05:25:00;42;38;
77699;PMS5003;66867;42.658;23.320;2023-02-28T05:26:00;41;38;
77699;PMS5003;66867;42.658;23.320;2023-02-28T05:27:00;42;37;
77699;PMS5003;66867;42.658;23.320;2023-02-28T05:28:00;42;37;
77699;PMS5003;66867;42.658;23.320;2023-02-28T05:29:00;42;35;
77699;PMS5003;66867;42.658;23.320;2023-02-28T05:30:00;45;39;
77699;PMS5003;66867;42.658;23.320;2023-02-28T05:31:00;39;36;
77699;PMS5003;66867;42.658;23.320;2023-02-28T05:32:00;43;37;
77699;PMS5003;66867;42.658;23.320;2023-02-28T05:33:00;41;36;
77699;PMS5003;66867;42.658;23.320;2023-02-28T05:34:00;46;38;
77699;PMS5003;66867;42.658;23.320;2023-02-28T05:35:00;45;37;
77699;PMS5003;66867;42.658;23.320;2023-02-28T05:36:00;46;39;
77699;PMS5003;66867;42.658;23.320;2023-02-28T05:37:00;45;36;
77699;PMS5003;66867;42.658;23.320;2023-02-28T05:38:00;43;38;
77699;PMS5003;66867;42.658;23.320;2023-02-28T05:39:00;39;37;
77699;PMS5003;66867;42.658;23.320;2023-02-28T05:40:01;39;37;
77699;PMS5003;66867;42.658;23.320;2023-02-28T05:41:05;53;40;
77699;PMS5003;66867;42.658;23.320;2023-02-28T05:42:00;40;36;
77699;PMS5003;66867;42.658;23.320;2023-02-28T05:43:00;44;37;
77699;PMS5003;66867;42.658;23.320;2023-02-28T05:44:00;41;37;
77699;PMS5003;66867;42.658;23.320;2023-02-28T05:45:00;47;40;
77699;PMS5003;66867;42.658;23.320;2023-02-28T05:46:09;46;39;
77699;PMS5003;66867;42.658;23.320;2023-02-28T05:47:00;45;39;
77699;PMS5003;66867;42.658;23.320;2023-02-28T05:48:00;45;40;
77699;PMS5003;66867;42.658;23.320;2023-02-28T05:49:01;45;40;
77699;PMS5003;66867;42.658;23.320;2023-02-28T05:50:00;41;37;
77699;PMS5003;66867;42.658;23.320;2023-02-28T05:51:00;41;38;
77699;PMS5003;66867;42.658;23.320;2023-02-28T05:52:00;48;42;
77699;PMS5003;66867;42.658;23.320;2023-02-28T05:53:00;48;39;
77699;PMS5003;66867;42.658;23.320;2023-02-28T05:54:00;44;37;
77699;PMS5003;66867;42.658;23.320;2023-02-28T05:55:00;48;37;
77699;PMS5003;66867;42.658;23.320;2023-02-28T05:56:00;50;42;
77699;PMS5003;66867;42.658;23.320;2023-02-28T05:57:00;40;36;
77699;PMS5003;66867;42.658;23.320;2023-02-28T05:58:00;51;43;
77699;PMS5003;66867;42.658;23.320;2023-02-28T05:59:00;47;39;
77699;PMS5003;66867;42.658;23.320;2023-02-28T06:00:00;56;47;
77699;PMS5003;66867;42.658;23.320;2023-02-28T06:01:18;51;41;
77699;PMS5003;66867;42.658;23.320;2023-02-28T06:02:00;51;43;
77699;PMS5003;66867;42.658;23.320;2023-02-28T06:03:00;60;49;
77699;PMS5003;66867;42.658;23.320;2023-02-28T06:04:01;57;47;
77699;PMS5003;66867;42.658;23.320;2023-02-28T06:05:00;52;44;
77699;PMS5003;66867;42.658;23.320;2023-02-28T06:06:00;60;47;
77699;PMS5003;66867;42.658;23.320;2023-02-28T06:07:00;50;43;
77699;PMS5003;66867;42.658;23.320;2023-02-28T06:08:00;57;47;
77699;PMS5003;66867;42.658;23.320;2023-02-28T06:09:00;58;48;
77699;PMS5003;66867;42.658;23.320;2023-02-28T06:10:00;55;47;
77699;PMS5003;66867;42.658;23.320;2023-02-28T06:11:03;59;46;
77699;PMS5003;66867;42.658;23.320;2023-02-28T06:12:01;51;43;
77699;PMS5003;66867;42.658;23.320;2023-02-28T06:13:01;59;46;
77699;PMS5003;66867;42.658;23.320;2023-02-28T06:14:01;59;49;
77699;PMS5003;66867;42.658;23.320;2023-02-28T06:15:00;54;45;
77699;PMS5003;66867;42.658;23.320;2023-02-28T06:16:01;61;50;
77699;PMS5003;66867;42.658;23.320;2023-02-28T06:17:01;58;47;
77699;PMS5003;66867;42.658;23.320;2023-02-28T06:18:00;60;49;
77699;PMS5003;66867;42.658;23.320;2023-02-28T06:19:03;54;46;
77699;PMS5003;66867;42.658;23.320;2023-02-28T06:20:00;56;44;
77699;PMS5003;66867;42.658;23.320;2023-02-28T06:21:00;60;50;
77699;PMS5003;66867;42.658;23.320;2023-02-28T06:22:00;62;49;
77699;PMS5003;66867;42.658;23.320;2023-02-28T06:23:00;59;50;
77699;PMS5003;66867;42.658;23.320;2023-02-28T06:24:01;53;45;
77699;PMS5003;66867;42.658;23.320;2023-02-28T06:25:00;61;49;
77699;PMS5003;66867;42.658;23.320;2023-02-28T06:26:00;59;49;
77699;PMS5003;66867;42.658;23.320;2023-02-28T06:27:00;53;45;
77699;PMS5003;66867;42.658;23.320;2023-02-28T06:28:00;56;45;
77699;PMS5003;66867;42.658;23.320;2023-02-28T06:29:00;59;49;
77699;PMS5003;66867;42.658;23.320;2023-02-28T06:30:00;60;50;
77699;PMS5003;66867;42.658;23.320;2023-02-28T06:31:06;60;50;
77699;PMS5003;66867;42.658;23.320;2023-02-28T06:32:00;60;49;
77699;PMS5003;66867;42.658;23.320;2023-02-28T06:33:00;64;51;
77699;PMS5003;66867;42.658;23.320;2023-02-28T06:34:00;61;50;
77699;PMS5003;66867;42.658;23.320;2023-02-28T06:35:00;64;51;
77699;PMS5003;66867;42.658;23.320;2023-02-28T06:36:00;60;50;
77699;PMS5003;66867;42.658;23.320;2023-02-28T06:37:00;64;52;
77699;PMS5003;66867;42.658;23.320;2023-02-28T06:38:00;61;50;
77699;PMS5003;66867;42.658;23.320;2023-02-28T06:39:00;60;51;
77699;PMS5003;66867;42.658;23.320;2023-02-28T06:40:00;66;51;
77699;PMS5003;66867;42.658;23.320;2023-02-28T06:41:01;66;51;
77699;PMS5003;66867;42.658;23.320;2023-02-28T06:42:00;59;49;
77699;PMS5003;66867;42.658;23.320;2023-02-28T06:43:01;60;48;
77699;PMS5003;66867;42.658;23.320;2023-02-28T06:44:00;64;51;
77699;PMS5003;66867;42.658;23.320;2023-02-28T06:45:00;59;49;
77699;PMS5003;66867;42.658;23.320;2023-02-28T06:46:02;65;51;
77699;PMS5003;66867;42.658;23.320;2023-02-28T06:47:02;63;52;
77699;PMS5003;66867;42.658;23.320;2023-02-28T06:48:00;62;50;
77699;PMS5003;66867;42.658;23.320;2023-02-28T06:49:00;61;50;
77699;PMS5003;66867;42.658;23.320;2023-02-28T06:50:00;59;49;
77699;PMS5003;66867;42.658;23.320;2023-02-28T06:51:05;59;48;
77699;PMS5003;66867;42.658;23.320;2023-02-28T06:52:00;57;47;